Flight Briefing for CPX315

Departure Arrival
Kansas City International Airport (KMCI)
Click to view FAA NOTAMS
Los Angeles International Airport (KLAX)
Click to view FAA NOTAMS
Departure Time Arrival Time
N/A N/A
Aircraft Distance
B767-300BDSF 1184nm
Departure METAR Arrival METAR
KMCI 181453Z VRB04KT 10SM CLR 06/M02 A3046 RMK AO2 SLP317 T00611017 53013 KLAX 181453Z 08003KT 10SM FEW011 15/09 A2998 RMK AO2 SLP151 T01500094 53008
Suggested Route
WL5 SLN KD45W ALS TBC JASSE Q90 DNERO ANJLL4


View recent IFR Routes data
Notes
METROAIR CARGO SUPPORT

Charts and Procedures

Charts for KMCI
No chart available
Charts for KLAX
No chart available

Windy.com Weather Map